Santa Clara de Saguier, Argentina
Current Conditions -  °F | °C
As of 9:00 AM on Friday 21 Nov 2014 (Local Time) from SAAR Reporting Station
Light Rain Light Rain  
Wind Chill: 64°   Ceiling: 4800
Heat Index: 64°   Visibility: 6mi
Dew Point: 61°   Wind: 8mph
Humidity: 88%   Direction: 90°E
Pressure: 29.94"   Gusts: NA
Location:  31.35°S, 61.83°W
Report Text: SAAR 211200Z 09007KT 9000 -RA SCT018 FEW022OVC048 18/16 Q1014
Loading
Personal Weather Stations






























Interactive Weather Map New forecast layout! Learn more

10-Day Weather Forecast

Advertisements
Track Severe Weather on mobile